Westerland Sylt Airport EDXW

Flugplatz Daten

Name: Westerland Sylt Airport

Ident: EDXW

Lat: 54,91320038

Long: 8,340470314

Platzhöhe: 51 ft

IataCode: GWT

City: Westerland

Metar

2021/10/16 17:20
EDXW 161720Z AUTO 25012KT 9999 // BKN069/// 12/04 Q1017

Taf

Gewünschte Webcam nicht vorhanden? Dann fügen Sie eine hinzu. Sie wird dann so schnell wie möglich freigeschaltet
Url: Title: